Pacific Titan — WCZ6844 — position and weather

sailwx.info

Track history (hours):
 
Tides and Currents Weather Stations Pressure Air Temp Water Temp Dewpoint Dewpoint Depression Visibility Wind Speed Wind Dir Waves Ship Positions

Pacific Titan

More information available from US FCC via Universal Licensing System and Coast Guard Vessel Documentation Center.

Last reported at 2014-Aug-30 13:33 UTC. Time now 2014-Aug-30 14:33 UTC.
Position N 50°54' W 127°23'.

Type: Tow > 200 m length. MMSI: 338855000.

Date/timePositionNaut miles runAvg speedWind from/ knotsBaromVisibWave heightAir tempDewpointWater temp
2014-Aug-30 13:33N 50°54' W 127°23'9 8.8
2014-Aug-30 12:33N 50°59' W 127°35'8 7.8
2014-Aug-30 11:33N 51°05' W 127°43'8 7.3
2014-Aug-30 10:31N 51°11' W 127°51'10 8.4
2014-Aug-30 09:21N 51°21' W 127°54'7 8.0
2014-Aug-30 08:31N 51°27' W 127°51'29 8.4
2014-Aug-30 05:08N 51°55' W 127°56'5 9.0
2014-Aug-30 04:32N 52°01' W 127°56'10 7.4
2014-Aug-30 03:14N 52°07' W 128°08'5 7.0
2014-Aug-30 02:33N 52°12' W 128°06'  
2014-Aug-22 13:28N 51°29' W 128°11'9 9.8
2014-Aug-22 12:33N 51°23' W 127°60'1010.0
2014-Aug-22 11:33N 51°14' W 127°53'1010.0
2014-Aug-22 10:33N 51°06' W 127°45'1010.1
2014-Aug-22 09:33N 50°59' W 127°33'1110.3
2014-Aug-22 08:31N 50°53' W 127°19'1010.0
2014-Aug-22 07:33N 50°48' W 127°06'10 9.6
2014-Aug-22 06:33N 50°42' W 126°54'9 9.2
2014-Aug-22 05:32N 50°36' W 126°43'12 9.2
2014-Aug-22 04:16N 50°30' W 126°27'8 9.9
2014-Aug-22 03:29N 50°30' W 126°15'91 9.1
2014-Aug-21 17:33N 49°35' W 124°23'14 9.8
2014-Aug-21 16:04N 49°27' W 124°04'5 9.8
2014-Aug-21 15:32N 49°24' W 123°57'10 9.9
2014-Aug-21 14:33N 49°19' W 123°44'9 9.4
2014-Aug-21 13:33N 49°12' W 123°34'9 9.5
2014-Aug-21 12:33N 49°06' W 123°24'10 9.6
2014-Aug-21 11:33N 48°59' W 123°13'9 8.8
2014-Aug-21 10:33N 48°54' W 123°03'9 9.2
2014-Aug-21 09:33N 48°48' W 122°52'9 9.1
2014-Aug-21 08:33N 48°41' W 122°42'9 9.1
2014-Aug-21 07:33N 48°32' W 122°44'1010.0
2014-Aug-21 06:33N 48°22' W 122°45'11 8.7
2014-Aug-21 05:14N 48°11' W 122°45'7 9.8
2014-Aug-21 04:30N 48°05' W 122°38'9 9.5
2014-Aug-21 03:33N 47°57' W 122°32'1010.1
2014-Aug-21 02:33N 47°48' W 122°26'1010.0
2014-Aug-21 01:33N 47°38' W 122°25'5 5.4
2014-Aug-21 00:33N 47°33' W 122°21'0 0.0
2014-Aug-20 23:33N 47°33' W 122°21'1 1.4
2014-Aug-20 22:33N 47°34' W 122°21'6 6.3
2014-Aug-20 21:33N 47°40' W 122°25'  
Track history (hours):
 
Tides and Currents Weather Stations Pressure Air Temp Water Temp Dewpoint Dewpoint Depression Visibility Wind Speed Wind Dir Waves Ship Positions

Pacific Titan

More information available from US FCC via Universal Licensing System and Coast Guard Vessel Documentation Center.

Last reported at 2014-Aug-30 13:33 UTC. Time now 2014-Aug-30 14:33 UTC.
Position N 50°54' W 127°23'.

Type: Tow > 200 m length. MMSI: 338855000.

Date/timePositionNaut miles runAvg speedWind from/ knotsBaromVisibWave heightAir tempDewpointWater temp
2014-Aug-30 13:33N 50°54' W 127°23'9 8.8
2014-Aug-30 12:33N 50°59' W 127°35'8 7.8
2014-Aug-30 11:33N 51°05' W 127°43'8 7.3
2014-Aug-30 10:31N 51°11' W 127°51'10 8.4
2014-Aug-30 09:21N 51°21' W 127°54'7 8.0
2014-Aug-30 08:31N 51°27' W 127°51'29 8.4
2014-Aug-30 05:08N 51°55' W 127°56'5 9.0
2014-Aug-30 04:32N 52°01' W 127°56'10 7.4
2014-Aug-30 03:14N 52°07' W 128°08'5 7.0
2014-Aug-30 02:33N 52°12' W 128°06'  
2014-Aug-22 13:28N 51°29' W 128°11'9 9.8
2014-Aug-22 12:33N 51°23' W 127°60'1010.0
2014-Aug-22 11:33N 51°14' W 127°53'1010.0
2014-Aug-22 10:33N 51°06' W 127°45'1010.1
2014-Aug-22 09:33N 50°59' W 127°33'1110.3
2014-Aug-22 08:31N 50°53' W 127°19'1010.0
2014-Aug-22 07:33N 50°48' W 127°06'10 9.6
2014-Aug-22 06:33N 50°42' W 126°54'9 9.2
2014-Aug-22 05:32N 50°36' W 126°43'12 9.2
2014-Aug-22 04:16N 50°30' W 126°27'8 9.9
2014-Aug-22 03:29N 50°30' W 126°15'91 9.1
2014-Aug-21 17:33N 49°35' W 124°23'14 9.8
2014-Aug-21 16:04N 49°27' W 124°04'5 9.8
2014-Aug-21 15:32N 49°24' W 123°57'10 9.9
2014-Aug-21 14:33N 49°19' W 123°44'9 9.4
2014-Aug-21 13:33N 49°12' W 123°34'9 9.5
2014-Aug-21 12:33N 49°06' W 123°24'10 9.6
2014-Aug-21 11:33N 48°59' W 123°13'9 8.8
2014-Aug-21 10:33N 48°54' W 123°03'9 9.2
2014-Aug-21 09:33N 48°48' W 122°52'9 9.1
2014-Aug-21 08:33N 48°41' W 122°42'9 9.1
2014-Aug-21 07:33N 48°32' W 122°44'1010.0
2014-Aug-21 06:33N 48°22' W 122°45'11 8.7
2014-Aug-21 05:14N 48°11' W 122°45'7 9.8
2014-Aug-21 04:30N 48°05' W 122°38'9 9.5
2014-Aug-21 03:33N 47°57' W 122°32'1010.1
2014-Aug-21 02:33N 47°48' W 122°26'1010.0
2014-Aug-21 01:33N 47°38' W 122°25'5 5.4
2014-Aug-21 00:33N 47°33' W 122°21'0 0.0
2014-Aug-20 23:33N 47°33' W 122°21'1 1.4
2014-Aug-20 22:33N 47°34' W 122°21'6 6.3
2014-Aug-20 21:33N 47°40' W 122°25'  

Dump ship's entire track history